sensor_id;sensor_type;location;lat;lon;timestamp;P1;durP1;ratioP1;P2;durP2;ratioP2
10761;SDS011;5433;50.862;4.320;2023-10-08T00:01:35;5.82;;;2.53;;
10761;SDS011;5433;50.862;4.320;2023-10-08T00:04:07;5.53;;;2.85;;
10761;SDS011;5433;50.862;4.320;2023-10-08T00:06:33;4.50;;;2.50;;
10761;SDS011;5433;50.862;4.320;2023-10-08T00:09:00;5.57;;;3.03;;
10761;SDS011;5433;50.862;4.320;2023-10-08T00:11:31;4.75;;;2.40;;
10761;SDS011;5433;50.862;4.320;2023-10-08T00:13:57;3.10;;;2.53;;
10761;SDS011;5433;50.862;4.320;2023-10-08T00:16:26;3.33;;;2.47;;
10761;SDS011;5433;50.862;4.320;2023-10-08T00:18:53;5.40;;;2.92;;
10761;SDS011;5433;50.862;4.320;2023-10-08T00:21:28;4.32;;;2.70;;
10761;SDS011;5433;50.862;4.320;2023-10-08T00:23:56;4.28;;;2.70;;
10761;SDS011;5433;50.862;4.320;2023-10-08T00:26:27;5.75;;;2.90;;
10761;SDS011;5433;50.862;4.320;2023-10-08T00:28:57;4.22;;;2.50;;
10761;SDS011;5433;50.862;4.320;2023-10-08T00:31:31;3.13;;;2.40;;
10761;SDS011;5433;50.862;4.320;2023-10-08T00:34:03;4.82;;;2.72;;
10761;SDS011;5433;50.862;4.320;2023-10-08T00:36:36;4.47;;;2.67;;
10761;SDS011;5433;50.862;4.320;2023-10-08T00:39:05;4.50;;;2.70;;
10761;SDS011;5433;50.862;4.320;2023-10-08T00:41:50;4.63;;;2.42;;
10761;SDS011;5433;50.862;4.320;2023-10-08T00:44:23;4.80;;;3.00;;
10761;SDS011;5433;50.862;4.320;2023-10-08T00:47:02;5.07;;;2.67;;
10761;SDS011;5433;50.862;4.320;2023-10-08T00:49:30;4.25;;;2.65;;
10761;SDS011;5433;50.862;4.320;2023-10-08T00:52:09;6.43;;;2.58;;
10761;SDS011;5433;50.862;4.320;2023-10-08T00:54:35;3.97;;;2.70;;
10761;SDS011;5433;50.862;4.320;2023-10-08T00:57:29;4.93;;;2.95;;
10761;SDS011;5433;50.862;4.320;2023-10-08T00:59:55;3.90;;;2.63;;
10761;SDS011;5433;50.862;4.320;2023-10-08T01:02:27;3.88;;;2.63;;
10761;SDS011;5433;50.862;4.320;2023-10-08T01:04:55;4.57;;;2.70;;
10761;SDS011;5433;50.862;4.320;2023-10-08T01:07:21;3.95;;;2.70;;
10761;SDS011;5433;50.862;4.320;2023-10-08T01:09:48;4.50;;;2.80;;
10761;SDS011;5433;50.862;4.320;2023-10-08T01:12:25;4.53;;;2.67;;
10761;SDS011;5433;50.862;4.320;2023-10-08T01:14:57;4.32;;;2.53;;
10761;SDS011;5433;50.862;4.320;2023-10-08T01:17:32;5.20;;;2.95;;
10761;SDS011;5433;50.862;4.320;2023-10-08T01:20:07;5.03;;;3.30;;
10761;SDS011;5433;50.862;4.320;2023-10-08T01:22:57;3.90;;;3.03;;
10761;SDS011;5433;50.862;4.320;2023-10-08T01:25:25;4.53;;;2.58;;
10761;SDS011;5433;50.862;4.320;2023-10-08T01:27:57;4.25;;;2.65;;
10761;SDS011;5433;50.862;4.320;2023-10-08T01:30:26;5.25;;;2.90;;
10761;SDS011;5433;50.862;4.320;2023-10-08T01:32:52;6.18;;;3.17;;
10761;SDS011;5433;50.862;4.320;2023-10-08T01:35:18;4.53;;;2.90;;
10761;SDS011;5433;50.862;4.320;2023-10-08T01:38:02;5.35;;;2.97;;
10761;SDS011;5433;50.862;4.320;2023-10-08T01:40:29;4.85;;;3.00;;
10761;SDS011;5433;50.862;4.320;2023-10-08T01:42:56;4.22;;;2.70;;
10761;SDS011;5433;50.862;4.320;2023-10-08T01:45:25;5.13;;;3.00;;
10761;SDS011;5433;50.862;4.320;2023-10-08T01:47:51;4.03;;;2.60;;
10761;SDS011;5433;50.862;4.320;2023-10-08T01:50:19;5.35;;;3.00;;
10761;SDS011;5433;50.862;4.320;2023-10-08T01:52:55;5.63;;;3.00;;
10761;SDS011;5433;50.862;4.320;2023-10-08T01:55:21;5.18;;;2.90;;
10761;SDS011;5433;50.862;4.320;2023-10-08T01:57:48;4.85;;;2.97;;
10761;SDS011;5433;50.862;4.320;2023-10-08T02:00:16;5.22;;;3.08;;
10761;SDS011;5433;50.862;4.320;2023-10-08T02:02:45;5.60;;;2.90;;
10761;SDS011;5433;50.862;4.320;2023-10-08T02:05:11;4.30;;;2.90;;
10761;SDS011;5433;50.862;4.320;2023-10-08T02:07:44;5.78;;;2.80;;
10761;SDS011;5433;50.862;4.320;2023-10-08T02:10:11;5.80;;;2.90;;
10761;SDS011;5433;50.862;4.320;2023-10-08T02:12:39;6.57;;;2.78;;
10761;SDS011;5433;50.862;4.320;2023-10-08T02:15:06;4.18;;;3.00;;
10761;SDS011;5433;50.862;4.320;2023-10-08T02:17:33;4.53;;;2.92;;
10761;SDS011;5433;50.862;4.320;2023-10-08T02:20:00;4.05;;;3.03;;
10761;SDS011;5433;50.862;4.320;2023-10-08T02:22:30;5.10;;;2.92;;
10761;SDS011;5433;50.862;4.320;2023-10-08T02:24:57;3.58;;;2.85;;
10761;SDS011;5433;50.862;4.320;2023-10-08T02:27:27;5.25;;;3.00;;
10761;SDS011;5433;50.862;4.320;2023-10-08T02:29:53;4.10;;;2.97;;
10761;SDS011;5433;50.862;4.320;2023-10-08T02:32:19;4.70;;;2.90;;
10761;SDS011;5433;50.862;4.320;2023-10-08T02:34:47;5.07;;;3.08;;
10761;SDS011;5433;50.862;4.320;2023-10-08T02:37:13;5.38;;;2.88;;
10761;SDS011;5433;50.862;4.320;2023-10-08T02:39:40;4.20;;;3.08;;
10761;SDS011;5433;50.862;4.320;2023-10-08T02:42:06;4.28;;;2.75;;
10761;SDS011;5433;50.862;4.320;2023-10-08T02:44:35;4.97;;;2.92;;
10761;SDS011;5433;50.862;4.320;2023-10-08T02:47:06;4.78;;;2.95;;
10761;SDS011;5433;50.862;4.320;2023-10-08T02:49:33;7.03;;;3.40;;
10761;SDS011;5433;50.862;4.320;2023-10-08T02:51:59;4.72;;;3.08;;
10761;SDS011;5433;50.862;4.320;2023-10-08T02:54:29;5.85;;;3.40;;
10761;SDS011;5433;50.862;4.320;2023-10-08T02:57:01;5.38;;;3.00;;
10761;SDS011;5433;50.862;4.320;2023-10-08T02:59:32;5.78;;;3.30;;
10761;SDS011;5433;50.862;4.320;2023-10-08T03:02:05;6.05;;;3.22;;
10761;SDS011;5433;50.862;4.320;2023-10-08T03:04:39;5.45;;;3.15;;
10761;SDS011;5433;50.862;4.320;2023-10-08T03:07:05;5.32;;;3.10;;
10761;SDS011;5433;50.862;4.320;2023-10-08T03:09:36;5.85;;;3.13;;
10761;SDS011;5433;50.862;4.320;2023-10-08T03:12:07;4.82;;;2.75;;
10761;SDS011;5433;50.862;4.320;2023-10-08T03:14:35;4.97;;;2.83;;
10761;SDS011;5433;50.862;4.320;2023-10-08T03:17:22;4.57;;;3.20;;
10761;SDS011;5433;50.862;4.320;2023-10-08T03:19:48;6.55;;;3.10;;
10761;SDS011;5433;50.862;4.320;2023-10-08T03:22:14;4.60;;;3.08;;
10761;SDS011;5433;50.862;4.320;2023-10-08T03:24:45;5.90;;;3.47;;
10761;SDS011;5433;50.862;4.320;2023-10-08T03:27:13;5.53;;;3.30;;
10761;SDS011;5433;50.862;4.320;2023-10-08T03:29:49;6.00;;;3.35;;
10761;SDS011;5433;50.862;4.320;2023-10-08T03:32:16;6.47;;;3.53;;
10761;SDS011;5433;50.862;4.320;2023-10-08T03:34:45;6.70;;;3.25;;
10761;SDS011;5433;50.862;4.320;2023-10-08T03:37:20;5.80;;;3.40;;
10761;SDS011;5433;50.862;4.320;2023-10-08T03:39:49;5.75;;;3.42;;
10761;SDS011;5433;50.862;4.320;2023-10-08T03:42:19;5.03;;;3.20;;
10761;SDS011;5433;50.862;4.320;2023-10-08T03:44:46;5.63;;;3.38;;
10761;SDS011;5433;50.862;4.320;2023-10-08T03:47:21;5.00;;;2.72;;
10761;SDS011;5433;50.862;4.320;2023-10-08T03:49:50;5.70;;;3.63;;
10761;SDS011;5433;50.862;4.320;2023-10-08T03:52:17;8.05;;;3.78;;
10761;SDS011;5433;50.862;4.320;2023-10-08T03:54:51;4.72;;;3.10;;
10761;SDS011;5433;50.862;4.320;2023-10-08T03:57:35;4.18;;;3.00;;
10761;SDS011;5433;50.862;4.320;2023-10-08T04:00:08;6.55;;;3.35;;
10761;SDS011;5433;50.862;4.320;2023-10-08T04:02:38;4.72;;;3.33;;
10761;SDS011;5433;50.862;4.320;2023-10-08T04:05:05;5.57;;;3.33;;
10761;SDS011;5433;50.862;4.320;2023-10-08T04:07:44;4.55;;;3.20;;
10761;SDS011;5433;50.862;4.320;2023-10-08T04:10:29;5.32;;;3.20;;
10761;SDS011;5433;50.862;4.320;2023-10-08T04:13:01;5.65;;;3.30;;
10761;SDS011;5433;50.862;4.320;2023-10-08T04:15:27;5.72;;;3.35;;
10761;SDS011;5433;50.862;4.320;2023-10-08T04:17:53;5.72;;;3.58;;
10761;SDS011;5433;50.862;4.320;2023-10-08T04:20:19;4.93;;;3.20;;
10761;SDS011;5433;50.862;4.320;2023-10-08T04:23:05;4.82;;;3.30;;
10761;SDS011;5433;50.862;4.320;2023-10-08T04:25:38;5.43;;;3.33;;
10761;SDS011;5433;50.862;4.320;2023-10-08T04:28:04;6.50;;;3.53;;
10761;SDS011;5433;50.862;4.320;2023-10-08T04:30:34;5.22;;;3.67;;
10761;SDS011;5433;50.862;4.320;2023-10-08T04:33:05;6.28;;;3.88;;
10761;SDS011;5433;50.862;4.320;2023-10-08T04:35:41;5.75;;;3.58;;
10761;SDS011;5433;50.862;4.320;2023-10-08T04:38:21;6.68;;;3.45;;
10761;SDS011;5433;50.862;4.320;2023-10-08T04:40:47;5.97;;;3.42;;
10761;SDS011;5433;50.862;4.320;2023-10-08T04:43:14;5.63;;;3.38;;
10761;SDS011;5433;50.862;4.320;2023-10-08T04:45:47;6.50;;;3.40;;
10761;SDS011;5433;50.862;4.320;2023-10-08T04:48:14;4.85;;;3.45;;
10761;SDS011;5433;50.862;4.320;2023-10-08T04:50:45;6.47;;;3.65;;
10761;SDS011;5433;50.862;4.320;2023-10-08T04:53:11;5.47;;;3.40;;
10761;SDS011;5433;50.862;4.320;2023-10-08T04:55:41;6.57;;;3.75;;
10761;SDS011;5433;50.862;4.320;2023-10-08T04:58:13;5.10;;;3.83;;
10761;SDS011;5433;50.862;4.320;2023-10-08T05:00:46;8.48;;;4.07;;
10761;SDS011;5433;50.862;4.320;2023-10-08T05:03:35;6.90;;;5.07;;
10761;SDS011;5433;50.862;4.320;2023-10-08T05:06:08;9.35;;;5.63;;
10761;SDS011;5433;50.862;4.320;2023-10-08T05:08:41;9.60;;;6.43;;
10761;SDS011;5433;50.862;4.320;2023-10-08T05:11:22;10.73;;;7.20;;
10761;SDS011;5433;50.862;4.320;2023-10-08T05:14:07;10.27;;;7.25;;
10761;SDS011;5433;50.862;4.320;2023-10-08T05:16:41;11.15;;;7.13;;
10761;SDS011;5433;50.862;4.320;2023-10-08T05:19:26;10.02;;;7.00;;
10761;SDS011;5433;50.862;4.320;2023-10-08T05:22:11;11.57;;;7.10;;
10761;SDS011;5433;50.862;4.320;2023-10-08T05:24:53;12.13;;;6.55;;
10761;SDS011;5433;50.862;4.320;2023-10-08T05:27:38;10.55;;;6.18;;
10761;SDS011;5433;50.862;4.320;2023-10-08T05:32:41;9.48;;;6.32;;
10761;SDS011;5433;50.862;4.320;2023-10-08T05:35:26;7.90;;;5.38;;
10761;SDS011;5433;50.862;4.320;2023-10-08T05:38:03;11.45;;;5.57;;
10761;SDS011;5433;50.862;4.320;2023-10-08T05:40:40;7.95;;;5.47;;
10761;SDS011;5433;50.862;4.320;2023-10-08T05:43:25;8.23;;;4.85;;
10761;SDS011;5433;50.862;4.320;2023-10-08T05:46:08;8.02;;;4.93;;
10761;SDS011;5433;50.862;4.320;2023-10-08T05:48:46;6.80;;;4.78;;
10761;SDS011;5433;50.862;4.320;2023-10-08T05:51:31;6.53;;;4.50;;
10761;SDS011;5433;50.862;4.320;2023-10-08T05:54:16;5.63;;;4.07;;
10761;SDS011;5433;50.862;4.320;2023-10-08T05:56:56;7.22;;;4.53;;
10761;SDS011;5433;50.862;4.320;2023-10-08T05:59:34;8.00;;;4.43;;
10761;SDS011;5433;50.862;4.320;2023-10-08T06:02:05;6.05;;;3.90;;
10761;SDS011;5433;50.862;4.320;2023-10-08T06:04:52;7.10;;;4.50;;
10761;SDS011;5433;50.862;4.320;2023-10-08T06:07:40;7.32;;;4.40;;
10761;SDS011;5433;50.862;4.320;2023-10-08T06:10:22;8.10;;;5.55;;
10761;SDS011;5433;50.862;4.320;2023-10-08T06:12:55;7.03;;;4.32;;
10761;SDS011;5433;50.862;4.320;2023-10-08T06:18:17;7.13;;;4.20;;
10761;SDS011;5433;50.862;4.320;2023-10-08T06:20:44;6.55;;;4.15;;
10761;SDS011;5433;50.862;4.320;2023-10-08T06:23:10;7.45;;;4.43;;
10761;SDS011;5433;50.862;4.320;2023-10-08T06:25:38;6.20;;;4.45;;
10761;SDS011;5433;50.862;4.320;2023-10-08T06:28:12;5.90;;;3.85;;
10761;SDS011;5433;50.862;4.320;2023-10-08T06:30:39;7.35;;;4.18;;
10761;SDS011;5433;50.862;4.320;2023-10-08T06:33:06;7.00;;;4.53;;
10761;SDS011;5433;50.862;4.320;2023-10-08T06:35:33;11.70;;;4.35;;
10761;SDS011;5433;50.862;4.320;2023-10-08T06:37:59;7.45;;;4.65;;
10761;SDS011;5433;50.862;4.320;2023-10-08T06:40:26;7.68;;;4.45;;
10761;SDS011;5433;50.862;4.320;2023-10-08T06:43:13;5.50;;;4.35;;
10761;SDS011;5433;50.862;4.320;2023-10-08T06:45:50;8.10;;;4.38;;
10761;SDS011;5433;50.862;4.320;2023-10-08T06:48:23;6.97;;;4.47;;
10761;SDS011;5433;50.862;4.320;2023-10-08T06:50:50;7.68;;;4.80;;
10761;SDS011;5433;50.862;4.320;2023-10-08T06:53:17;6.75;;;4.47;;
10761;SDS011;5433;50.862;4.320;2023-10-08T06:55:44;7.38;;;4.43;;
10761;SDS011;5433;50.862;4.320;2023-10-08T06:58:10;8.05;;;4.30;;
10761;SDS011;5433;50.862;4.320;2023-10-08T07:00:37;10.10;;;4.40;;
10761;SDS011;5433;50.862;4.320;2023-10-08T07:03:14;7.80;;;4.35;;
10761;SDS011;5433;50.862;4.320;2023-10-08T07:05:41;5.70;;;4.03;;
10761;SDS011;5433;50.862;4.320;2023-10-08T07:08:09;5.82;;;3.75;;
10761;SDS011;5433;50.862;4.320;2023-10-08T07:10:38;6.85;;;4.05;;
10761;SDS011;5433;50.862;4.320;2023-10-08T07:13:04;7.47;;;4.13;;
10761;SDS011;5433;50.862;4.320;2023-10-08T07:15:33;6.97;;;4.50;;
10761;SDS011;5433;50.862;4.320;2023-10-08T07:18:02;5.50;;;4.20;;
10761;SDS011;5433;50.862;4.320;2023-10-08T07:20:35;6.78;;;4.07;;
10761;SDS011;5433;50.862;4.320;2023-10-08T07:23:05;5.93;;;4.07;;
10761;SDS011;5433;50.862;4.320;2023-10-08T07:25:36;6.43;;;4.45;;
10761;SDS011;5433;50.862;4.320;2023-10-08T07:28:05;8.15;;;4.18;;
10761;SDS011;5433;50.862;4.320;2023-10-08T07:30:37;6.93;;;4.38;;
10761;SDS011;5433;50.862;4.320;2023-10-08T07:33:09;8.13;;;3.80;;
10761;SDS011;5433;50.862;4.320;2023-10-08T07:35:46;7.00;;;4.38;;
10761;SDS011;5433;50.862;4.320;2023-10-08T07:38:36;7.47;;;3.72;;
10761;SDS011;5433;50.862;4.320;2023-10-08T07:41:02;8.98;;;4.00;;
10761;SDS011;5433;50.862;4.320;2023-10-08T07:43:30;6.53;;;3.97;;
10761;SDS011;5433;50.862;4.320;2023-10-08T07:45:57;8.15;;;4.40;;
10761;SDS011;5433;50.862;4.320;2023-10-08T07:48:23;6.63;;;4.10;;
10761;SDS011;5433;50.862;4.320;2023-10-08T07:50:55;6.65;;;4.10;;
10761;SDS011;5433;50.862;4.320;2023-10-08T07:53:22;6.55;;;4.20;;
10761;SDS011;5433;50.862;4.320;2023-10-08T07:55:49;9.15;;;4.10;;
10761;SDS011;5433;50.862;4.320;2023-10-08T07:58:16;5.72;;;3.75;;
10761;SDS011;5433;50.862;4.320;2023-10-08T08:00:43;6.47;;;3.95;;
10761;SDS011;5433;50.862;4.320;2023-10-08T08:03:19;7.85;;;4.70;;
10761;SDS011;5433;50.862;4.320;2023-10-08T08:05:46;6.03;;;4.18;;
10761;SDS011;5433;50.862;4.320;2023-10-08T08:08:13;5.15;;;3.90;;
10761;SDS011;5433;50.862;4.320;2023-10-08T08:10:43;7.47;;;4.45;;
10761;SDS011;5433;50.862;4.320;2023-10-08T08:13:09;7.35;;;4.32;;
10761;SDS011;5433;50.862;4.320;2023-10-08T08:15:35;5.60;;;4.20;;
10761;SDS011;5433;50.862;4.320;2023-10-08T08:18:08;7.28;;;4.20;;
10761;SDS011;5433;50.862;4.320;2023-10-08T08:20:43;7.43;;;4.40;;
10761;SDS011;5433;50.862;4.320;2023-10-08T08:23:10;6.93;;;4.18;;
10761;SDS011;5433;50.862;4.320;2023-10-08T08:25:37;9.15;;;4.45;;
10761;SDS011;5433;50.862;4.320;2023-10-08T08:28:11;6.93;;;4.15;;
10761;SDS011;5433;50.862;4.320;2023-10-08T08:30:45;7.35;;;4.55;;
10761;SDS011;5433;50.862;4.320;2023-10-08T08:33:17;7.25;;;4.40;;
10761;SDS011;5433;50.862;4.320;2023-10-08T08:35:57;6.57;;;4.40;;
10761;SDS011;5433;50.862;4.320;2023-10-08T08:38:24;6.75;;;4.55;;
10761;SDS011;5433;50.862;4.320;2023-10-08T08:40:50;7.53;;;4.72;;
10761;SDS011;5433;50.862;4.320;2023-10-08T08:43:18;7.68;;;4.70;;
10761;SDS011;5433;50.862;4.320;2023-10-08T08:45:44;6.85;;;4.68;;
10761;SDS011;5433;50.862;4.320;2023-10-08T08:48:14;8.63;;;5.03;;
10761;SDS011;5433;50.862;4.320;2023-10-08T08:50:42;7.63;;;4.78;;
10761;SDS011;5433;50.862;4.320;2023-10-08T08:53:08;9.10;;;4.63;;
10761;SDS011;5433;50.862;4.320;2023-10-08T08:55:34;7.30;;;4.68;;
10761;SDS011;5433;50.862;4.320;2023-10-08T08:58:01;8.13;;;4.43;;
10761;SDS011;5433;50.862;4.320;2023-10-08T09:00:30;8.90;;;4.43;;
10761;SDS011;5433;50.862;4.320;2023-10-08T09:02:56;8.27;;;4.35;;
10761;SDS011;5433;50.862;4.320;2023-10-08T09:05:22;6.15;;;4.60;;
10761;SDS011;5433;50.862;4.320;2023-10-08T09:08:06;7.47;;;4.47;;
10761;SDS011;5433;50.862;4.320;2023-10-08T09:10:37;7.72;;;4.78;;
10761;SDS011;5433;50.862;4.320;2023-10-08T09:13:18;7.68;;;4.72;;
10761;SDS011;5433;50.862;4.320;2023-10-08T09:15:46;10.27;;;4.90;;
10761;SDS011;5433;50.862;4.320;2023-10-08T09:18:12;8.45;;;5.05;;
10761;SDS011;5433;50.862;4.320;2023-10-08T09:20:39;11.15;;;5.53;;
10761;SDS011;5433;50.862;4.320;2023-10-08T09:23:15;9.55;;;4.75;;
10761;SDS011;5433;50.862;4.320;2023-10-08T09:25:47;9.07;;;5.65;;
10761;SDS011;5433;50.862;4.320;2023-10-08T09:28:18;8.27;;;5.32;;
10761;SDS011;5433;50.862;4.320;2023-10-08T09:30:46;10.90;;;5.28;;
10761;SDS011;5433;50.862;4.320;2023-10-08T09:33:14;7.13;;;5.18;;
10761;SDS011;5433;50.862;4.320;2023-10-08T09:35:42;7.95;;;5.25;;
10761;SDS011;5433;50.862;4.320;2023-10-08T09:38:08;9.68;;;5.47;;
10761;SDS011;5433;50.862;4.320;2023-10-08T09:40:38;11.68;;;5.70;;
10761;SDS011;5433;50.862;4.320;2023-10-08T09:43:06;10.25;;;5.22;;
10761;SDS011;5433;50.862;4.320;2023-10-08T09:45:33;9.05;;;5.40;;
10761;SDS011;5433;50.862;4.320;2023-10-08T09:48:00;10.70;;;5.78;;
10761;SDS011;5433;50.862;4.320;2023-10-08T09:50:28;10.07;;;5.88;;
10761;SDS011;5433;50.862;4.320;2023-10-08T09:55:31;8.65;;;5.60;;
10761;SDS011;5433;50.862;4.320;2023-10-08T09:57:57;8.13;;;5.30;;
10761;SDS011;5433;50.862;4.320;2023-10-08T10:00:24;13.43;;;5.88;;
10761;SDS011;5433;50.862;4.320;2023-10-08T10:02:56;9.90;;;5.65;;
10761;SDS011;5433;50.862;4.320;2023-10-08T10:07:59;11.13;;;6.05;;
10761;SDS011;5433;50.862;4.320;2023-10-08T10:10:27;11.43;;;5.50;;
10761;SDS011;5433;50.862;4.320;2023-10-08T10:12:58;9.70;;;5.75;;
10761;SDS011;5433;50.862;4.320;2023-10-08T10:15:28;12.55;;;5.90;;
10761;SDS011;5433;50.862;4.320;2023-10-08T10:18:46;9.95;;;5.93;;
10761;SDS011;5433;50.862;4.320;2023-10-08T10:21:23;12.30;;;5.95;;
10761;SDS011;5433;50.862;4.320;2023-10-08T10:23:46;9.70;;;5.35;;
10761;SDS011;5433;50.862;4.320;2023-10-08T10:31:41;12.65;;;6.15;;
10761;SDS011;5433;50.862;4.320;2023-10-08T10:34:15;9.60;;;5.47;;
10761;SDS011;5433;50.862;4.320;2023-10-08T10:36:41;13.32;;;6.95;;
10761;SDS011;5433;50.862;4.320;2023-10-08T10:39:12;11.07;;;6.25;;
10761;SDS011;5433;50.862;4.320;2023-10-08T10:41:42;11.45;;;5.68;;
10761;SDS011;5433;50.862;4.320;2023-10-08T10:44:09;11.88;;;6.38;;
10761;SDS011;5433;50.862;4.320;2023-10-08T10:46:35;8.30;;;5.60;;
10761;SDS011;5433;50.862;4.320;2023-10-08T10:49:06;10.65;;;5.90;;
10761;SDS011;5433;50.862;4.320;2023-10-08T10:51:53;10.98;;;5.88;;
10761;SDS011;5433;50.862;4.320;2023-10-08T10:54:28;11.77;;;6.10;;
10761;SDS011;5433;50.862;4.320;2023-10-08T10:57:01;12.80;;;6.18;;
10761;SDS011;5433;50.862;4.320;2023-10-08T10:59:32;9.65;;;5.82;;
10761;SDS011;5433;50.862;4.320;2023-10-08T11:02:05;12.13;;;6.95;;
10761;SDS011;5433;50.862;4.320;2023-10-08T11:04:46;14.35;;;7.25;;
10761;SDS011;5433;50.862;4.320;2023-10-08T11:07:18;11.90;;;6.20;;
10761;SDS011;5433;50.862;4.320;2023-10-08T11:09:48;8.15;;;5.65;;
10761;SDS011;5433;50.862;4.320;2023-10-08T11:12:17;8.45;;;5.28;;
10761;SDS011;5433;50.862;4.320;2023-10-08T11:14:54;9.50;;;6.00;;
10761;SDS011;5433;50.862;4.320;2023-10-08T11:17:23;11.13;;;5.32;;
10761;SDS011;5433;50.862;4.320;2023-10-08T11:22:58;8.98;;;5.40;;
10761;SDS011;5433;50.862;4.320;2023-10-08T11:25:51;11.25;;;5.82;;
10761;SDS011;5433;50.862;4.320;2023-10-08T11:28:18;9.32;;;5.55;;
10761;SDS011;5433;50.862;4.320;2023-10-08T11:30:44;11.73;;;5.93;;
10761;SDS011;5433;50.862;4.320;2023-10-08T11:33:12;13.23;;;6.13;;
10761;SDS011;5433;50.862;4.320;2023-10-08T11:36:01;11.63;;;5.50;;
10761;SDS011;5433;50.862;4.320;2023-10-08T11:38:36;12.40;;;5.53;;
10761;SDS011;5433;50.862;4.320;2023-10-08T11:41:12;11.10;;;6.03;;
10761;SDS011;5433;50.862;4.320;2023-10-08T11:43:52;9.25;;;5.57;;
10761;SDS011;5433;50.862;4.320;2023-10-08T11:46:26;9.48;;;5.53;;
10761;SDS011;5433;50.862;4.320;2023-10-08T11:49:03;11.32;;;5.53;;
10761;SDS011;5433;50.862;4.320;2023-10-08T11:51:33;8.30;;;5.63;;
10761;SDS011;5433;50.862;4.320;2023-10-08T11:54:00;9.63;;;5.28;;
10761;SDS011;5433;50.862;4.320;2023-10-08T11:56:29;9.10;;;5.50;;
10761;SDS011;5433;50.862;4.320;2023-10-08T11:58:57;8.30;;;5.15;;
10761;SDS011;5433;50.862;4.320;2023-10-08T12:01:25;10.43;;;5.50;;
10761;SDS011;5433;50.862;4.320;2023-10-08T12:03:52;11.55;;;5.80;;
10761;SDS011;5433;50.862;4.320;2023-10-08T12:06:21;9.57;;;6.00;;
10761;SDS011;5433;50.862;4.320;2023-10-08T12:08:49;10.20;;;5.22;;
10761;SDS011;5433;50.862;4.320;2023-10-08T12:11:18;7.25;;;5.00;;
10761;SDS011;5433;50.862;4.320;2023-10-08T12:16:51;10.45;;;5.13;;
10761;SDS011;5433;50.862;4.320;2023-10-08T12:19:17;7.35;;;4.82;;
10761;SDS011;5433;50.862;4.320;2023-10-08T12:21:45;9.00;;;4.97;;
10761;SDS011;5433;50.862;4.320;2023-10-08T12:24:12;8.57;;;4.97;;
10761;SDS011;5433;50.862;4.320;2023-10-08T12:26:39;10.50;;;5.38;;
10761;SDS011;5433;50.862;4.320;2023-10-08T12:29:12;9.30;;;4.82;;
10761;SDS011;5433;50.862;4.320;2023-10-08T12:31:42;10.80;;;5.53;;
10761;SDS011;5433;50.862;4.320;2023-10-08T12:34:12;9.20;;;5.25;;
10761;SDS011;5433;50.862;4.320;2023-10-08T12:36:38;9.27;;;4.68;;
10761;SDS011;5433;50.862;4.320;2023-10-08T12:39:04;10.07;;;5.05;;
10761;SDS011;5433;50.862;4.320;2023-10-08T12:41:43;9.00;;;5.18;;
10761;SDS011;5433;50.862;4.320;2023-10-08T12:44:14;10.05;;;4.90;;
10761;SDS011;5433;50.862;4.320;2023-10-08T12:46:40;9.25;;;5.03;;
10761;SDS011;5433;50.862;4.320;2023-10-08T12:49:09;8.02;;;4.53;;
10761;SDS011;5433;50.862;4.320;2023-10-08T12:51:35;7.70;;;4.78;;
10761;SDS011;5433;50.862;4.320;2023-10-08T12:54:09;8.88;;;4.85;;
10761;SDS011;5433;50.862;4.320;2023-10-08T12:56:46;9.18;;;5.15;;
10761;SDS011;5433;50.862;4.320;2023-10-08T12:59:19;7.30;;;5.00;;
10761;SDS011;5433;50.862;4.320;2023-10-08T13:01:46;8.48;;;5.20;;
10761;SDS011;5433;50.862;4.320;2023-10-08T13:04:16;8.57;;;5.32;;
10761;SDS011;5433;50.862;4.320;2023-10-08T13:06:46;8.45;;;4.72;;
10761;SDS011;5433;50.862;4.320;2023-10-08T13:09:12;10.77;;;5.57;;
10761;SDS011;5433;50.862;4.320;2023-10-08T13:11:39;9.98;;;5.40;;
10761;SDS011;5433;50.862;4.320;2023-10-08T13:14:05;7.85;;;4.88;;
10761;SDS011;5433;50.862;4.320;2023-10-08T13:16:31;7.82;;;5.05;;
10761;SDS011;5433;50.862;4.320;2023-10-08T13:18:58;9.00;;;4.80;;
10761;SDS011;5433;50.862;4.320;2023-10-08T13:21:25;10.35;;;5.53;;
10761;SDS011;5433;50.862;4.320;2023-10-08T13:23:51;8.25;;;5.00;;
10761;SDS011;5433;50.862;4.320;2023-10-08T13:26:17;9.98;;;5.05;;
10761;SDS011;5433;50.862;4.320;2023-10-08T13:28:47;12.70;;;5.38;;
10761;SDS011;5433;50.862;4.320;2023-10-08T13:31:14;9.00;;;4.95;;
10761;SDS011;5433;50.862;4.320;2023-10-08T13:33:41;7.88;;;4.93;;
10761;SDS011;5433;50.862;4.320;2023-10-08T13:36:09;7.22;;;4.82;;
10761;SDS011;5433;50.862;4.320;2023-10-08T13:38:36;9.65;;;5.22;;
10761;SDS011;5433;50.862;4.320;2023-10-08T13:41:03;9.63;;;4.80;;
10761;SDS011;5433;50.862;4.320;2023-10-08T13:46:10;9.00;;;4.93;;
10761;SDS011;5433;50.862;4.320;2023-10-08T13:48:40;9.88;;;5.10;;
10761;SDS011;5433;50.862;4.320;2023-10-08T13:51:07;7.22;;;4.80;;
10761;SDS011;5433;50.862;4.320;2023-10-08T13:53:39;8.80;;;4.85;;
10761;SDS011;5433;50.862;4.320;2023-10-08T13:56:05;10.80;;;5.47;;
10761;SDS011;5433;50.862;4.320;2023-10-08T13:58:31;10.32;;;5.07;;
10761;SDS011;5433;50.862;4.320;2023-10-08T14:01:00;8.48;;;4.90;;
10761;SDS011;5433;50.862;4.320;2023-10-08T14:03:29;9.07;;;5.28;;
10761;SDS011;5433;50.862;4.320;2023-10-08T14:05:58;8.20;;;5.03;;
10761;SDS011;5433;50.862;4.320;2023-10-08T14:08:31;10.13;;;4.93;;
10761;SDS011;5433;50.862;4.320;2023-10-08T14:10:57;6.95;;;5.00;;
10761;SDS011;5433;50.862;4.320;2023-10-08T14:13:28;10.02;;;5.43;;
10761;SDS011;5433;50.862;4.320;2023-10-08T14:15:56;7.30;;;4.85;;
10761;SDS011;5433;50.862;4.320;2023-10-08T14:18:23;6.88;;;4.88;;
10761;SDS011;5433;50.862;4.320;2023-10-08T14:20:53;8.80;;;5.28;;
10761;SDS011;5433;50.862;4.320;2023-10-08T14:23:20;11.75;;;5.63;;
10761;SDS011;5433;50.862;4.320;2023-10-08T14:25:48;9.48;;;5.93;;
10761;SDS011;5433;50.862;4.320;2023-10-08T14:28:16;9.07;;;5.28;;
10761;SDS011;5433;50.862;4.320;2023-10-08T14:31:05;8.13;;;4.93;;
10761;SDS011;5433;50.862;4.320;2023-10-08T14:33:31;8.75;;;5.30;;
10761;SDS011;5433;50.862;4.320;2023-10-08T14:36:06;8.35;;;5.35;;
10761;SDS011;5433;50.862;4.320;2023-10-08T14:38:51;9.10;;;5.03;;
10761;SDS011;5433;50.862;4.320;2023-10-08T14:41:35;7.25;;;4.57;;
10761;SDS011;5433;50.862;4.320;2023-10-08T14:44:20;8.00;;;4.82;;
10761;SDS011;5433;50.862;4.320;2023-10-08T14:46:48;10.10;;;5.13;;
10761;SDS011;5433;50.862;4.320;2023-10-08T14:49:15;7.25;;;4.25;;
10761;SDS011;5433;50.862;4.320;2023-10-08T14:51:41;9.35;;;4.65;;
10761;SDS011;5433;50.862;4.320;2023-10-08T14:54:08;7.75;;;4.50;;
10761;SDS011;5433;50.862;4.320;2023-10-08T14:56:37;6.47;;;4.80;;
10761;SDS011;5433;50.862;4.320;2023-10-08T14:59:04;8.10;;;4.70;;
10761;SDS011;5433;50.862;4.320;2023-10-08T15:01:30;8.18;;;4.70;;
10761;SDS011;5433;50.862;4.320;2023-10-08T15:03:59;7.47;;;4.25;;
10761;SDS011;5433;50.862;4.320;2023-10-08T15:06:29;6.97;;;4.80;;
10761;SDS011;5433;50.862;4.320;2023-10-08T15:08:56;9.10;;;4.72;;
10761;SDS011;5433;50.862;4.320;2023-10-08T15:11:22;6.10;;;4.35;;
10761;SDS011;5433;50.862;4.320;2023-10-08T15:13:50;7.05;;;4.50;;
10761;SDS011;5433;50.862;4.320;2023-10-08T15:16:19;7.68;;;4.60;;
10761;SDS011;5433;50.862;4.320;2023-10-08T15:18:48;6.10;;;4.40;;
10761;SDS011;5433;50.862;4.320;2023-10-08T15:21:14;7.03;;;4.60;;
10761;SDS011;5433;50.862;4.320;2023-10-08T15:23:42;10.63;;;4.53;;
10761;SDS011;5433;50.862;4.320;2023-10-08T15:26:08;8.70;;;4.53;;
10761;SDS011;5433;50.862;4.320;2023-10-08T15:28:36;8.00;;;4.57;;
10761;SDS011;5433;50.862;4.320;2023-10-08T15:31:02;7.80;;;4.38;;
10761;SDS011;5433;50.862;4.320;2023-10-08T15:33:28;8.23;;;4.53;;
10761;SDS011;5433;50.862;4.320;2023-10-08T15:35:54;9.57;;;4.80;;
10761;SDS011;5433;50.862;4.320;2023-10-08T15:38:21;7.45;;;5.22;;
10761;SDS011;5433;50.862;4.320;2023-10-08T15:40:48;9.57;;;4.70;;
10761;SDS011;5433;50.862;4.320;2023-10-08T15:43:14;7.43;;;5.30;;
10761;SDS011;5433;50.862;4.320;2023-10-08T15:45:40;7.45;;;4.85;;
10761;SDS011;5433;50.862;4.320;2023-10-08T15:48:06;10.23;;;5.22;;